createdAt,value
2023-04-11T00:02:11.382Z,99163.69
2023-04-11T00:04:42.771Z,99171.28
2023-04-11T00:07:11.742Z,99169.13
2023-04-11T00:09:40.131Z,99177.50
2023-04-11T00:12:08.956Z,99183.31
2023-04-11T00:14:37.346Z,99186.03
2023-04-11T00:17:06.984Z,99190.28
2023-04-11T00:19:35.445Z,99191.16
2023-04-11T00:22:05.941Z,99199.00
2023-04-11T00:24:34.276Z,99204.53
2023-04-11T00:27:02.941Z,99209.00
2023-04-11T00:29:31.481Z,99214.75
2023-04-11T00:31:59.812Z,99219.03
2023-04-11T00:34:28.949Z,99218.41
2023-04-11T00:36:57.315Z,99220.56
2023-04-11T00:39:27.432Z,99234.25
2023-04-11T00:42:04.241Z,99232.66
2023-04-11T00:44:32.905Z,99244.78
2023-04-11T00:47:03.353Z,99238.28
2023-04-11T00:49:33.002Z,99255.09
2023-04-11T00:52:01.872Z,99246.56
2023-04-11T00:54:32.893Z,99256.41
2023-04-11T00:57:05.334Z,99265.00
2023-04-11T00:59:34.510Z,99269.25
2023-04-11T01:02:03.282Z,99271.94
2023-04-11T01:04:31.780Z,99268.28
2023-04-11T01:07:07.258Z,99278.34
2023-04-11T01:09:37.573Z,99286.91
2023-04-11T01:12:07.638Z,99286.28
2023-04-11T01:14:36.156Z,99293.31
2023-04-11T01:17:05.005Z,99299.84
2023-04-11T01:19:33.670Z,99305.38
2023-04-11T01:22:03.527Z,99300.59
2023-04-11T01:24:32.629Z,99299.16
2023-04-11T01:27:01.130Z,99302.81
2023-04-11T01:29:29.453Z,99316.47
2023-04-11T01:31:57.783Z,99310.19
2023-04-11T01:34:29.301Z,99316.47
2023-04-11T01:36:57.773Z,99315.03
2023-04-11T01:39:26.222Z,99311.75
2023-04-11T01:41:57.625Z,99313.91
2023-04-11T01:44:27.686Z,99314.53
2023-04-11T01:46:56.201Z,99315.91
2023-04-11T01:49:26.814Z,99311.41
2023-04-11T01:51:55.172Z,99314.88
2023-04-11T01:54:23.576Z,99320.41
2023-04-11T01:56:53.256Z,99317.97
2023-04-11T01:59:21.696Z,99323.72
2023-04-11T02:01:50.091Z,99323.56
2023-04-11T02:04:18.831Z,99328.34
2023-04-11T02:06:47.310Z,99327.44
2023-04-11T02:09:15.710Z,99332.41
2023-04-11T02:11:44.052Z,99334.31
2023-04-11T02:14:15.346Z,99336.22
2023-04-11T02:16:57.750Z,99338.38
2023-04-11T02:19:26.918Z,99346.91
2023-04-11T02:21:55.295Z,99334.13
2023-04-11T02:24:23.702Z,99335.50
2023-04-11T02:26:52.065Z,99344.06
2023-04-11T02:29:20.409Z,99333.13
2023-04-11T02:31:51.941Z,99339.38
2023-04-11T02:34:20.343Z,99337.34
2023-04-11T02:36:49.946Z,99333.63
2023-04-11T02:39:18.510Z,99331.94
2023-04-11T02:41:46.897Z,99340.25
2023-04-11T02:44:15.245Z,99330.28
2023-04-11T02:46:43.697Z,99329.56
2023-04-11T02:49:12.325Z,99327.16
2023-04-11T02:51:40.665Z,99333.22
2023-04-11T02:54:09.225Z,99333.59
2023-04-11T02:56:39.710Z,99325.50
2023-04-11T02:59:08.472Z,99330.78
2023-04-11T03:01:38.804Z,99322.09
2023-04-11T03:04:08.181Z,99324.03
2023-04-11T03:06:36.976Z,99322.31
2023-04-11T03:09:05.811Z,99311.56
2023-04-11T03:11:34.185Z,99312.69
2023-04-11T03:14:02.575Z,99299.47
2023-04-11T03:16:31.037Z,99302.91
2023-04-11T03:18:59.762Z,99309.94
2023-04-11T03:21:28.534Z,99308.22
2023-04-11T03:23:56.850Z,99308.78
2023-04-11T03:26:28.569Z,99298.56
2023-04-11T03:28:57.485Z,99294.78
2023-04-11T03:31:26.804Z,99288.19
2023-04-11T03:33:55.226Z,99290.06
2023-04-11T03:36:24.065Z,99286.28
2023-04-11T03:38:52.368Z,99280.63
2023-04-11T03:41:20.923Z,99279.13
2023-04-11T03:43:49.273Z,99271.91
2023-04-11T03:46:17.658Z,99268.69
2023-04-11T03:48:48.092Z,99267.91
2023-04-11T03:51:16.453Z,99257.09
2023-04-11T03:53:44.785Z,99251.97
2023-04-11T03:56:13.199Z,99250.63
2023-04-11T03:58:41.725Z,99244.75
2023-04-11T04:01:10.108Z,99244.72
2023-04-11T04:03:38.675Z,99245.28
2023-04-11T04:06:07.630Z,99233.09
2023-04-11T04:08:35.990Z,99231.56
2023-04-11T04:11:04.394Z,99227.91
2023-04-11T04:13:32.754Z,99222.03
2023-04-11T04:16:03.539Z,99222.72
2023-04-11T04:18:32.797Z,99221.19
2023-04-11T04:21:01.167Z,99218.69
2023-04-11T04:23:30.944Z,99217.53
2023-04-11T04:28:32.045Z,99208.56
2023-04-11T04:31:00.463Z,99204.16
2023-04-11T04:33:28.887Z,99195.97
2023-04-11T04:36:00.812Z,99194.97
2023-04-11T04:38:29.895Z,99185.63
2023-04-11T04:40:58.261Z,99180.66
2023-04-11T04:43:28.156Z,99182.81
2023-04-11T04:45:56.571Z,99176.31
2023-04-11T04:48:26.671Z,99171.31
2023-04-11T04:50:55.012Z,99165.69
2023-04-11T04:53:23.385Z,99156.47
2023-04-11T04:55:51.888Z,99152.66
2023-04-11T04:58:20.253Z,99148.38
2023-04-11T05:00:50.280Z,99150.22
2023-04-11T05:03:21.871Z,99143.06
2023-04-11T05:05:50.798Z,99134.59
2023-04-11T05:08:21.961Z,99127.13
2023-04-11T05:10:50.340Z,99117.72
2023-04-11T05:13:18.677Z,99116.91
2023-04-11T05:15:52.087Z,99107.66
2023-04-11T05:18:20.430Z,99103.94
2023-04-11T05:20:49.312Z,99100.47
2023-04-11T05:23:17.693Z,99090.91
2023-04-11T05:25:46.247Z,99083.59
2023-04-11T05:28:14.648Z,99084.22
2023-04-11T05:30:43.006Z,99073.88
2023-04-11T05:33:13.816Z,99066.97
2023-04-11T05:35:42.849Z,99061.00
2023-04-11T05:38:11.473Z,99062.66
2023-04-11T05:40:39.951Z,99050.34
2023-04-11T05:43:09.309Z,99050.34
2023-04-11T05:45:37.660Z,99038.19
2023-04-11T05:48:07.914Z,99023.34
2023-04-11T05:50:37.197Z,99023.69
2023-04-11T05:53:06.421Z,99024.88
2023-04-11T05:55:35.171Z,99014.53
2023-04-11T05:58:03.709Z,99008.50
2023-04-11T06:00:33.210Z,99004.00
2023-04-11T06:03:03.502Z,98993.06
2023-04-11T06:05:32.845Z,98984.22
2023-04-11T06:08:01.909Z,98983.00
2023-04-11T06:10:31.621Z,98972.94
2023-04-11T06:13:00.406Z,98972.78
2023-04-11T06:15:29.264Z,98960.34
2023-04-11T06:17:57.683Z,98950.59
2023-04-11T06:20:26.266Z,98952.50
2023-04-11T06:22:54.764Z,98944.28
2023-04-11T06:25:23.382Z,98930.56
2023-04-11T06:27:52.500Z,98931.47
2023-04-11T06:30:20.878Z,98923.94
2023-04-11T06:32:49.244Z,98921.97
2023-04-11T06:35:17.626Z,98923.00
2023-04-11T06:37:47.108Z,98914.16
2023-04-11T06:40:15.628Z,98914.44
2023-04-11T06:42:43.994Z,98901.50
2023-04-11T06:45:12.957Z,98898.81
2023-04-11T06:47:42.242Z,98886.78
2023-04-11T06:50:11.183Z,98886.94
2023-04-11T06:52:39.620Z,98873.53
2023-04-11T06:55:08.634Z,98868.09
2023-04-11T06:57:37.014Z,98856.22
2023-04-11T07:00:07.986Z,98858.47
2023-04-11T07:02:40.354Z,98848.53
2023-04-11T07:05:12.530Z,98845.22
2023-04-11T07:07:40.942Z,98838.44
2023-04-11T07:10:10.003Z,98833.34
2023-04-11T07:12:38.477Z,98823.13
2023-04-11T07:15:07.520Z,98817.88
2023-04-11T07:17:36.396Z,98812.28
2023-04-11T07:20:07.906Z,98806.75
2023-04-11T07:22:37.571Z,98804.03
2023-04-11T07:25:06.271Z,98800.06
2023-04-11T07:27:36.584Z,98800.81
2023-04-11T07:30:05.737Z,98796.00
2023-04-11T07:32:34.121Z,98799.72
2023-04-11T07:35:02.528Z,98788.31
2023-04-11T07:37:31.929Z,98783.94
2023-04-11T07:40:00.931Z,98783.81
2023-04-11T07:42:29.288Z,98780.81
2023-04-11T07:44:57.646Z,98774.38
2023-04-11T07:47:26.150Z,98770.91
2023-04-11T07:49:54.516Z,98762.94
2023-04-11T07:52:22.847Z,98771.38
2023-04-11T07:54:51.259Z,98764.16
2023-04-11T07:57:19.667Z,98769.88
2023-04-11T07:59:48.095Z,98760.31
2023-04-11T08:02:16.506Z,98753.53
2023-04-11T08:04:45.144Z,98752.81
2023-04-11T08:07:13.560Z,98752.19
2023-04-11T08:09:43.468Z,98746.22
2023-04-11T08:12:12.173Z,98742.47
2023-04-11T08:14:40.546Z,98741.47
2023-04-11T08:17:17.660Z,98735.34
2023-04-11T08:19:53.791Z,98735.66
2023-04-11T08:22:22.279Z,98735.34
2023-04-11T08:24:50.619Z,98723.81
2023-04-11T08:27:18.986Z,98725.50
2023-04-11T08:29:47.379Z,98729.72
2023-04-11T08:32:15.713Z,98724.47
2023-04-11T08:34:44.110Z,98714.16
2023-04-11T08:37:13.503Z,98718.38
2023-04-11T08:39:41.837Z,98716.59
2023-04-11T08:42:25.154Z,98714.06
2023-04-11T08:45:01.902Z,98718.72
2023-04-11T08:47:30.290Z,98715.00
2023-04-11T08:49:58.824Z,98709.00
2023-04-11T08:52:28.165Z,98701.78
2023-04-11T08:54:56.889Z,98706.00
2023-04-11T08:57:28.493Z,98701.50
2023-04-11T08:59:58.596Z,98708.44
2023-04-11T09:02:27.531Z,98699.44
2023-04-11T09:04:58.560Z,98696.44
2023-04-11T09:07:27.654Z,98703.97
2023-04-11T09:09:56.353Z,98697.38
2023-04-11T09:12:31.260Z,98698.75
2023-04-11T09:14:59.891Z,98693.38
2023-04-11T09:17:43.270Z,98686.78
2023-04-11T09:20:32.312Z,98692.19
2023-04-11T09:23:00.859Z,98686.19
2023-04-11T09:25:29.688Z,98690.25
2023-04-11T09:28:12.210Z,98687.22
2023-04-11T09:30:50.204Z,98692.94
2023-04-11T09:33:24.385Z,98694.44
2023-04-11T09:35:58.088Z,98694.59
2023-04-11T09:38:37.450Z,98692.94
2023-04-11T09:41:06.406Z,98697.00
2023-04-11T09:43:56.648Z,98690.25
2023-04-11T09:46:26.325Z,98692.06
2023-04-11T09:48:55.838Z,98696.00
2023-04-11T09:51:35.958Z,98698.69
2023-04-11T09:54:06.401Z,98702.44
2023-04-11T09:56:35.675Z,98697.97
2023-04-11T09:59:05.589Z,98704.13
2023-04-11T10:01:34.565Z,98705.19
2023-04-11T10:04:03.010Z,98700.41
2023-04-11T10:06:43.297Z,98699.91
2023-04-11T10:09:14.654Z,98705.16
2023-04-11T10:11:44.895Z,98701.28
2023-04-11T10:14:38.425Z,98701.44
2023-04-11T10:17:21.243Z,98705.75
2023-04-11T10:19:52.343Z,98705.91
2023-04-11T10:22:53.001Z,98710.41
2023-04-11T10:25:22.889Z,98710.13
2023-04-11T10:27:55.581Z,98724.63
2023-04-11T10:30:42.279Z,98715.44
2023-04-11T10:33:21.433Z,98717.09
2023-04-11T10:36:00.374Z,98728.00
2023-04-11T10:38:49.980Z,98721.69
2023-04-11T10:41:24.205Z,98726.91
2023-04-11T10:43:53.571Z,98729.28
2023-04-11T10:46:24.420Z,98737.34
2023-04-11T10:49:03.573Z,98739.72
2023-04-11T10:51:33.924Z,98732.19
2023-04-11T10:54:02.918Z,98732.47
2023-04-11T10:56:53.621Z,98744.72
2023-04-11T10:59:50.958Z,98733.47
2023-04-11T11:02:23.324Z,98741.50
2023-04-11T11:04:52.394Z,98735.94
2023-04-11T11:07:20.810Z,98737.50
2023-04-11T11:09:51.841Z,98739.13
2023-04-11T11:12:20.225Z,98745.63
2023-04-11T11:14:48.805Z,98750.09
2023-04-11T11:17:18.229Z,98746.75
2023-04-11T11:19:48.352Z,98744.34
2023-04-11T11:22:27.368Z,98755.97
2023-04-11T11:24:55.943Z,98748.28
2023-04-11T11:27:26.004Z,98752.28
2023-04-11T11:29:54.410Z,98753.28
2023-04-11T11:32:30.315Z,98752.78
2023-04-11T11:34:59.703Z,98751.69
2023-04-11T11:37:28.102Z,98746.09
2023-04-11T11:39:56.838Z,98755.59
2023-04-11T11:42:25.318Z,98760.97
2023-04-11T11:44:53.952Z,98767.63
2023-04-11T11:47:23.660Z,98770.88
2023-04-11T11:49:55.209Z,98776.22
2023-04-11T11:52:41.529Z,98769.28
2023-04-11T11:55:31.021Z,98784.44
2023-04-11T11:58:04.297Z,98775.41
2023-04-11T12:00:38.624Z,98775.06
2023-04-11T12:03:10.690Z,98786.84
2023-04-11T12:05:39.502Z,98786.28
2023-04-11T12:08:08.753Z,98792.94
2023-04-11T12:10:57.208Z,98798.09
2023-04-11T12:13:28.575Z,98798.19
2023-04-11T12:15:58.852Z,98809.00
2023-04-11T12:18:29.725Z,98798.44
2023-04-11T12:20:59.505Z,98807.16
2023-04-11T12:23:27.847Z,98816.06
2023-04-11T12:25:56.252Z,98809.84
2023-04-11T12:28:24.616Z,98819.34
2023-04-11T12:30:52.974Z,98816.69
2023-04-11T12:33:22.072Z,98824.09
2023-04-11T12:35:50.534Z,98823.00
2023-04-11T12:38:19.107Z,98821.13
2023-04-11T12:40:47.904Z,98831.34
2023-04-11T12:43:16.516Z,98828.88
2023-04-11T12:45:44.839Z,98834.94
2023-04-11T12:48:13.174Z,98839.69
2023-04-11T12:50:41.872Z,98838.16
2023-04-11T12:53:10.217Z,98852.88
2023-04-11T12:55:39.053Z,98851.94
2023-04-11T12:58:10.365Z,98856.69
2023-04-11T13:00:38.733Z,98857.06
2023-04-11T13:03:07.717Z,98871.06
2023-04-11T13:05:37.959Z,98867.84
2023-04-11T13:08:06.320Z,98873.91
2023-04-11T13:10:34.745Z,98867.28
2023-04-11T13:13:11.815Z,98872.56
2023-04-11T13:15:47.309Z,98872.78
2023-04-11T13:18:15.954Z,98872.41
2023-04-11T13:20:44.402Z,98876.22
2023-04-11T13:23:13.685Z,98871.69
2023-04-11T13:25:43.285Z,98877.69
2023-04-11T13:28:11.656Z,98881.84
2023-04-11T13:30:40.085Z,98892.81
2023-04-11T13:33:08.480Z,98898.81
2023-04-11T13:35:36.925Z,98902.03
2023-04-11T13:38:05.776Z,98910.16
2023-04-11T13:40:34.348Z,98905.81
2023-04-11T13:43:02.688Z,98910.34
2023-04-11T13:45:31.275Z,98917.69
2023-04-11T13:47:59.670Z,98919.56
2023-04-11T13:50:30.289Z,98914.28
2023-04-11T13:52:58.738Z,98926.91
2023-04-11T13:55:27.106Z,98935.22
2023-04-11T13:57:56.216Z,98935.78
2023-04-11T14:00:24.647Z,98933.50
2023-04-11T14:02:53.232Z,98940.50
2023-04-11T14:05:21.754Z,98941.81
2023-04-11T14:07:50.525Z,98940.88
2023-04-11T14:10:18.927Z,98942.38
2023-04-11T14:12:47.402Z,98940.13
2023-04-11T14:15:15.740Z,98947.09
2023-04-11T14:17:44.935Z,98943.50
2023-04-11T14:20:13.780Z,98948.97
2023-04-11T14:22:43.505Z,98948.22
2023-04-11T14:25:12.564Z,98952.19
2023-04-11T14:27:42.908Z,98964.06
2023-04-11T14:30:15.894Z,98961.00
2023-04-11T14:32:44.313Z,98961.94
2023-04-11T14:35:12.785Z,98960.22
2023-04-11T14:37:41.363Z,98963.97
2023-04-11T14:40:11.762Z,98968.69
2023-04-11T14:42:40.622Z,98961.31
2023-04-11T14:45:09.324Z,98973.19
2023-04-11T14:47:38.223Z,98978.44
2023-04-11T14:50:07.247Z,98976.72
2023-04-11T14:52:35.985Z,98975.78
2023-04-11T14:55:04.561Z,98972.75
2023-04-11T14:57:50.400Z,98975.38
2023-04-11T15:00:23.356Z,98975.00
2023-04-11T15:02:56.559Z,98979.69
2023-04-11T15:05:25.779Z,98976.47
2023-04-11T15:07:54.818Z,98986.06
2023-04-11T15:10:26.881Z,98977.41
2023-04-11T15:12:55.321Z,98978.28
2023-04-11T15:15:23.995Z,98990.72
2023-04-11T15:18:31.594Z,98994.66
2023-04-11T15:21:02.823Z,99002.19
2023-04-11T15:23:31.620Z,99001.94
2023-04-11T15:26:02.429Z,99001.00
2023-04-11T15:28:37.223Z,99004.38
2023-04-11T15:31:08.673Z,99002.13
2023-04-11T15:33:38.562Z,99007.75
2023-04-11T15:36:07.995Z,99010.38
2023-04-11T15:38:37.749Z,98996.81
2023-04-11T15:41:06.866Z,99000.97
2023-04-11T15:43:35.246Z,99002.28
2023-04-11T15:46:07.633Z,98999.25
2023-04-11T15:48:36.111Z,99002.63
2023-04-11T15:51:12.001Z,98999.56
2023-04-11T15:53:40.352Z,98998.06
2023-04-11T15:56:09.308Z,98992.22
2023-04-11T15:58:37.711Z,98992.78
2023-04-11T16:01:06.302Z,98990.50
2023-04-11T16:03:35.057Z,98988.03
2023-04-11T16:06:04.157Z,98996.50
2023-04-11T16:08:32.548Z,98985.78
2023-04-11T16:11:00.990Z,98989.91
2023-04-11T16:13:29.346Z,98989.16
2023-04-11T16:15:58.275Z,98985.56
2023-04-11T16:18:26.619Z,98988.94
2023-04-11T16:20:55.076Z,98990.25
2023-04-11T16:23:23.712Z,98979.53
2023-04-11T16:28:20.816Z,98977.06
2023-04-11T16:30:49.175Z,98973.47
2023-04-11T16:33:18.437Z,98964.25
2023-04-11T16:35:46.969Z,98959.34
2023-04-11T16:38:15.389Z,98966.31
2023-04-11T16:40:43.769Z,98960.47
2023-04-11T16:43:13.113Z,98966.88
2023-04-11T16:45:41.457Z,98963.09
2023-04-11T16:48:12.703Z,98961.56
2023-04-11T16:50:41.068Z,98968.50
2023-04-11T16:53:09.529Z,98958.53
2023-04-11T16:55:37.910Z,98963.97
2023-04-11T16:58:06.407Z,98960.94
2023-04-11T17:00:34.800Z,98964.31
2023-04-11T17:03:03.823Z,98952.63
2023-04-11T17:05:35.601Z,98959.59
2023-04-11T17:08:04.033Z,98961.44
2023-04-11T17:10:32.455Z,98948.44
2023-04-11T17:13:00.853Z,98955.38
2023-04-11T17:15:29.432Z,98944.44
2023-04-11T17:17:57.977Z,98947.06
2023-04-11T17:20:26.471Z,98937.63
2023-04-11T17:22:54.932Z,98937.41
2023-04-11T17:25:23.355Z,98939.28
2023-04-11T17:27:51.788Z,98943.41
2023-04-11T17:30:20.257Z,98937.56
2023-04-11T17:32:49.780Z,98940.19
2023-04-11T17:35:18.926Z,98930.00
2023-04-11T17:37:47.467Z,98931.31
2023-04-11T17:40:16.260Z,98934.69
2023-04-11T17:42:44.761Z,98928.84
2023-04-11T17:45:17.755Z,98923.75
2023-04-11T17:47:48.455Z,98929.38
2023-04-11T17:50:17.739Z,98925.59
2023-04-11T17:52:47.639Z,98919.22
2023-04-11T17:55:18.215Z,98909.25
2023-04-11T17:57:50.912Z,98919.00
2023-04-11T18:00:24.885Z,98911.31
2023-04-11T18:03:00.952Z,98911.66
2023-04-11T18:05:33.756Z,98908.03
2023-04-11T18:08:04.084Z,98910.66
2023-04-11T18:10:32.490Z,98903.50
2023-04-11T18:13:01.143Z,98901.25
2023-04-11T18:15:33.935Z,98905.94
2023-04-11T18:18:06.176Z,98902.91
2023-04-11T18:20:34.591Z,98898.91
2023-04-11T18:23:03.017Z,98895.13
2023-04-11T18:25:32.217Z,98887.00
2023-04-11T18:28:00.602Z,98888.31
2023-04-11T18:30:29.054Z,98886.59
2023-04-11T18:32:58.308Z,98883.00
2023-04-11T18:35:26.825Z,98880.75
2023-04-11T18:37:55.330Z,98882.06
2023-04-11T18:40:23.844Z,98869.22
2023-04-11T18:42:53.449Z,98872.81
2023-04-11T18:45:23.347Z,98872.06
2023-04-11T18:47:52.001Z,98868.47
2023-04-11T18:50:20.601Z,98873.34
2023-04-11T18:52:53.658Z,98866.97
2023-04-11T18:55:23.329Z,98863.19
2023-04-11T18:57:55.168Z,98865.25
2023-04-11T19:00:26.133Z,98865.03
2023-04-11T19:02:54.766Z,98859.75
2023-04-11T19:05:25.536Z,98866.50
2023-04-11T19:07:54.213Z,98869.09
2023-04-11T19:10:22.956Z,98861.97
2023-04-11T19:12:51.397Z,98858.94
2023-04-11T19:15:19.863Z,98863.06
2023-04-11T19:17:48.358Z,98858.72
2023-04-11T19:20:17.472Z,98858.53
2023-04-11T19:22:47.211Z,98850.06
2023-04-11T19:25:15.886Z,98854.94
2023-04-11T19:27:45.386Z,98847.59
2023-04-11T19:30:14.550Z,98852.13
2023-04-11T19:32:44.806Z,98844.78
2023-04-11T19:35:13.655Z,98849.63
2023-04-11T19:37:42.146Z,98850.41
2023-04-11T19:40:16.768Z,98845.53
2023-04-11T19:42:46.831Z,98844.78
2023-04-11T19:45:15.140Z,98841.16
2023-04-11T19:47:43.553Z,98844.00
2023-04-11T19:50:16.611Z,98839.66
2023-04-11T19:52:45.750Z,98839.47
2023-04-11T19:55:14.190Z,98838.69
2023-04-11T19:57:44.409Z,98832.84
2023-04-11T20:00:17.610Z,98844.88
2023-04-11T20:02:49.163Z,98842.81
2023-04-11T20:05:19.760Z,98840.00
2023-04-11T20:07:48.785Z,98836.97
2023-04-11T20:10:18.106Z,98838.50
2023-04-11T20:12:46.705Z,98834.91
2023-04-11T20:15:15.833Z,98836.03
2023-04-11T20:17:46.127Z,98829.84
2023-04-11T20:20:16.248Z,98835.25
2023-04-11T20:22:45.736Z,98828.66
2023-04-11T20:25:14.140Z,98834.31
2023-04-11T20:27:43.574Z,98839.94
2023-04-11T20:30:13.161Z,98835.06
2023-04-11T20:32:43.131Z,98836.91
2023-04-11T20:35:15.293Z,98839.72
2023-04-11T20:37:46.630Z,98837.47
2023-04-11T20:40:15.136Z,98835.19
2023-04-11T20:42:46.622Z,98839.13
2023-04-11T20:45:17.178Z,98826.34
2023-04-11T20:47:50.860Z,98838.16
2023-04-11T20:50:20.208Z,98830.25
2023-04-11T20:52:53.942Z,98842.78
2023-04-11T20:55:22.354Z,98846.16
2023-04-11T20:57:50.749Z,98851.00
2023-04-11T21:00:20.534Z,98851.00
2023-04-11T21:02:51.206Z,98848.75
2023-04-11T21:05:25.738Z,98854.91
2023-04-11T21:07:56.810Z,98853.97
2023-04-11T21:10:25.736Z,98853.19
2023-04-11T21:12:54.857Z,98854.50
2023-04-11T21:15:23.408Z,98864.25
2023-04-11T21:17:53.093Z,98863.28
2023-04-11T21:20:22.256Z,98858.97
2023-04-11T21:22:55.745Z,98860.81
2023-04-11T21:25:25.073Z,98860.19
2023-04-11T21:27:53.600Z,98872.75
2023-04-11T21:30:22.092Z,98868.22
2023-04-11T21:32:50.633Z,98874.41
2023-04-11T21:35:19.337Z,98876.97
2023-04-11T21:37:49.183Z,98877.50
2023-04-11T21:40:17.776Z,98880.13
2023-04-11T21:42:47.794Z,98879.38
2023-04-11T21:45:16.731Z,98884.78
2023-04-11T21:47:45.269Z,98884.03
2023-04-11T21:50:13.755Z,98893.03
2023-04-11T21:52:42.169Z,98895.63
2023-04-11T21:55:11.004Z,98900.50
2023-04-11T21:57:39.483Z,98903.09
2023-04-11T22:00:11.672Z,98912.31
2023-04-11T22:02:41.998Z,98910.78
2023-04-11T22:05:11.209Z,98910.56
2023-04-11T22:07:47.129Z,98913.38
2023-04-11T22:10:16.886Z,98918.81
2023-04-11T22:12:46.546Z,98923.69
2023-04-11T22:15:15.190Z,98930.59
2023-04-11T22:17:44.494Z,98927.03
2023-04-11T22:20:13.284Z,98929.63
2023-04-11T22:22:43.060Z,98932.47
2023-04-11T22:25:11.674Z,98931.69
2023-04-11T22:27:40.124Z,98938.63
2023-04-11T22:30:09.870Z,98943.50
2023-04-11T22:32:38.927Z,98949.13
2023-04-11T22:35:09.072Z,98953.25
2023-04-11T22:37:37.473Z,98955.31
2023-04-11T22:40:07.373Z,98957.34
2023-04-11T22:42:36.663Z,98966.09
2023-04-11T22:45:05.218Z,98966.84
2023-04-11T22:47:35.209Z,98970.97
2023-04-11T22:50:04.398Z,98975.09
2023-04-11T22:52:32.784Z,98975.84
2023-04-11T22:55:01.274Z,98985.59
2023-04-11T22:57:29.680Z,98982.78
2023-04-11T22:59:59.840Z,98984.59
2023-04-11T23:02:32.531Z,99003.75
2023-04-11T23:05:04.028Z,98993.03
2023-04-11T23:07:35.678Z,98993.78
2023-04-11T23:10:06.720Z,98997.91
2023-04-11T23:12:35.121Z,99003.75
2023-04-11T23:15:05.207Z,99008.63
2023-04-11T23:17:34.092Z,99007.34
2023-04-11T23:20:02.474Z,99026.50
2023-04-11T23:22:30.841Z,99013.72
2023-04-11T23:24:59.789Z,99019.34
2023-04-11T23:27:28.715Z,99021.41
2023-04-11T23:29:57.148Z,99021.94
2023-04-11T23:32:25.601Z,99033.94
2023-04-11T23:34:54.266Z,99036.75
2023-04-11T23:37:22.669Z,99051.09
2023-04-11T23:39:51.050Z,99048.47
2023-04-11T23:42:19.497Z,99050.00
2023-04-11T23:44:48.453Z,99054.59
2023-04-11T23:47:16.806Z,99063.25
2023-04-11T23:49:45.410Z,99060.66
2023-04-11T23:52:15.509Z,99055.25
2023-04-11T23:54:44.551Z,99066.19
2023-04-11T23:57:12.917Z,99074.84
2023-04-11T23:59:41.423Z,99073.75
